Time;durP1;ratioP1;P1;durP2;ratioP2;P2;SDS_P1;SDS_P2;PMS_P1;PMS_P2;Temp;Humidity;BMP_temperature;BMP_pressure;BME280_temperature;BME280_humidity;BME280_pressure;Samples;Min_cycle;Max_cycle;Signal;HPM_P1;HPM_P2
2022/09/27 00:01:46;;;;;;;6.57;1.30;;;10.20;99.90;;;;;;4985060;28;37189;-79
2022/09/27 00:04:12;;;;;;;3.40;0.80;;;10.20;99.90;;;;;;4983118;28;37444;-79
2022/09/27 00:06:38;;;;;;;10.17;1.20;;;10.20;99.90;;;;;;4985756;28;39008;-80
2022/09/27 00:09:04;;;;;;;5.93;0.97;;;10.20;99.90;;;;;;4991779;28;37659;-80
2022/09/27 00:11:38;;;;;;;11.13;1.37;;;10.30;99.90;;;;;;4979315;28;38949;-80
2022/09/27 00:14:05;;;;;;;7.87;0.90;;;10.30;99.90;;;;;;4978418;28;36460;-80
2022/09/27 00:16:34;;;;;;;5.53;1.20;;;10.30;99.90;;;;;;4983566;28;38061;-80
2022/09/27 00:19:13;;;;;;;7.87;1.27;;;10.30;99.90;;;;;;4980197;28;39161;-80
2022/09/27 00:21:39;;;;;;;6.33;1.30;;;10.30;99.90;;;;;;4973647;28;48834;-79
2022/09/27 00:24:05;;;;;;;9.10;1.10;;;10.30;99.90;;;;;;4977872;28;38007;-80
2022/09/27 00:26:31;;;;;;;13.17;1.50;;;10.30;99.90;;;;;;4983722;28;40004;-80
2022/09/27 00:28:58;;;;;;;4.13;0.83;;;10.30;99.90;;;;;;4980136;28;38559;-80
2022/09/27 00:31:28;;;;;;;6.57;1.10;;;10.20;99.90;;;;;;4981457;28;38057;-80
2022/09/27 00:33:55;;;;;;;11.17;1.63;;;10.20;99.90;;;;;;4982272;28;37556;-80
2022/09/27 00:36:22;;;;;;;13.90;1.90;;;10.20;99.90;;;;;;4976444;28;39631;-80
2022/09/27 00:38:49;;;;;;;7.43;1.00;;;10.20;99.90;;;;;;4978675;28;38551;-80
2022/09/27 00:41:19;;;;;;;8.47;1.30;;;10.20;99.90;;;;;;4974924;28;37858;-81
2022/09/27 00:43:47;;;;;;;13.80;2.37;;;10.20;99.90;;;;;;4992188;28;36096;-80
2022/09/27 00:46:18;;;;;;;9.80;1.60;;;10.20;99.90;;;;;;4981425;28;37797;-81
2022/09/27 00:48:45;;;;;;;13.07;1.57;;;10.20;99.90;;;;;;4983959;28;38772;-80
2022/09/27 00:51:11;;;;;;;10.90;1.17;;;10.20;99.90;;;;;;4978589;28;40428;-80
2022/09/27 00:53:50;;;;;;;8.57;1.37;;;10.30;99.90;;;;;;4985612;28;36182;-80
2022/09/27 00:56:23;;;;;;;13.10;2.10;;;10.30;99.90;;;;;;4985253;28;39889;-80
2022/09/27 00:58:56;;;;;;;9.13;2.80;;;10.30;99.90;;;;;;4987295;28;36718;-80
2022/09/27 01:03:59;;;;;;;11.13;1.87;;;10.20;99.90;;;;;;4971570;28;20050;-76
2022/09/27 01:06:25;;;;;;;14.57;1.77;;;10.00;99.90;;;;;;4965336;28;37802;-79
2022/09/27 01:08:51;;;;;;;15.20;1.87;;;10.00;99.90;;;;;;4968402;28;37378;-78
2022/09/27 01:11:41;;;;;;;12.93;2.37;;;10.00;99.90;;;;;;4994045;28;38355;-79
2022/09/27 01:14:16;;;;;;;10.40;1.40;;;10.00;99.90;;;;;;4972277;28;36151;-78
2022/09/27 01:17:08;;;;;;;11.43;2.17;;;10.00;99.90;;;;;;4983986;28;38675;-78
2022/09/27 01:19:39;;;;;;;8.13;1.13;;;9.90;99.90;;;;;;4961137;28;46963;-77
2022/09/27 01:22:09;;;;;;;16.05;1.38;;;9.90;99.90;;;;;;4966085;28;36496;-79
2022/09/27 01:24:55;;;;;;;5.80;1.00;;;9.90;99.90;;;;;;4966923;28;36715;-78
2022/09/27 01:27:21;;;;;;;6.90;1.30;;;9.90;99.90;;;;;;4980611;28;38774;-78
2022/09/27 01:29:56;;;;;;;5.33;1.33;;;9.80;99.90;;;;;;4967357;28;35602;-78
2022/09/27 01:32:42;;;;;;;11.37;1.00;;;9.80;99.90;;;;;;4968424;28;39252;-78
2022/09/27 01:35:16;;;;;;;8.57;1.00;;;9.80;99.90;;;;;;4946356;28;36527;-78
2022/09/27 01:38:09;;;;;;;13.30;1.63;;;9.90;99.90;;;;;;4964067;28;37790;-79
2022/09/27 01:40:44;;;;;;;6.10;0.77;;;9.90;99.90;;;;;;4962042;28;47182;-79
2022/09/27 01:43:21;;;;;;;8.70;1.20;;;9.90;99.90;;;;;;4971414;28;38112;-78
2022/09/27 01:46:12;;;;;;;7.93;1.20;;;9.90;99.90;;;;;;4955267;28;37276;-79
2022/09/27 01:48:47;;;;;;;10.40;1.00;;;9.90;99.90;;;;;;4958983;28;47977;-79
2022/09/27 01:51:23;;;;;;;6.20;1.63;;;9.90;99.90;;;;;;4963817;28;37648;-79
2022/09/27 01:53:52;;;;;;;6.03;0.93;;;9.90;99.90;;;;;;4965456;28;36964;-79
2022/09/27 01:56:32;;;;;;;6.13;1.10;;;9.90;99.90;;;;;;4980912;28;37033;-79
2022/09/27 01:59:15;;;;;;;8.40;0.97;;;9.90;99.90;;;;;;4969541;28;37477;-78
2022/09/27 02:01:44;;;;;;;7.23;1.03;;;9.90;99.90;;;;;;4968338;28;46020;-78
2022/09/27 02:04:14;;;;;;;8.77;0.70;;;10.00;99.90;;;;;;4967993;28;38200;-77
2022/09/27 02:06:44;;;;;;;7.60;1.80;;;10.00;99.90;;;;;;4965618;28;36278;-79
2022/09/27 02:09:23;;;;;;;6.00;1.05;;;10.00;99.90;;;;;;4983522;28;39012;-77
2022/09/27 02:11:54;;;;;;;4.43;0.90;;;10.00;99.90;;;;;;4972229;28;37122;-78
2022/09/27 02:14:30;;;;;;;8.60;1.27;;;9.90;99.90;;;;;;4967823;28;38117;-79
2022/09/27 02:17:14;;;;;;;5.70;0.93;;;10.00;99.90;;;;;;4974626;28;35823;-78
2022/09/27 02:19:53;;;;;;;9.63;1.10;;;10.00;99.90;;;;;;4983404;28;47611;-78
2022/09/27 02:22:36;;;;;;;6.57;1.00;;;9.90;99.90;;;;;;4969090;28;38640;-78
2022/09/27 02:25:11;;;;;;;7.57;1.10;;;9.90;99.90;;;;;;4983472;28;39012;-77
2022/09/27 02:27:54;;;;;;;13.73;1.83;;;9.90;99.90;;;;;;4971727;28;47067;-79
2022/09/27 02:30:20;;;;;;;;;;;9.90;99.90;;;;;;4989368;28;39264;-78
2022/09/27 02:32:46;;;;;;;10.27;1.40;;;10.00;99.90;;;;;;4990016;28;40062;-78
2022/09/27 02:35:30;;;;;;;12.77;1.43;;;10.10;99.90;;;;;;4989904;28;39095;-78
2022/09/27 02:37:57;;;;;;;11.77;1.60;;;10.00;99.90;;;;;;4970564;28;36197;-79
2022/09/27 02:40:25;;;;;;;8.90;1.00;;;10.10;99.90;;;;;;4973067;28;37427;-78
2022/09/27 02:42:51;;;;;;;10.10;1.57;;;10.00;99.90;;;;;;4971774;28;37935;-78
2022/09/27 02:45:19;;;;;;;7.67;1.03;;;10.10;99.90;;;;;;4988857;28;38509;-77
2022/09/27 02:47:55;;;;;;;9.43;1.20;;;10.10;99.90;;;;;;4976586;28;36159;-77
2022/09/27 02:50:44;;;;;;;9.47;1.30;;;10.10;99.90;;;;;;4961885;28;38369;-77
2022/09/27 02:53:38;;;;;;;7.67;1.10;;;10.10;99.90;;;;;;4988872;28;38147;-78
2022/09/27 02:56:22;;;;;;;9.47;1.50;;;10.10;99.90;;;;;;4971386;28;38035;-78
2022/09/27 02:58:57;;;;;;;13.40;1.80;;;10.00;99.90;;;;;;4965154;28;46080;-78
2022/09/27 03:01:44;;;;;;;14.60;2.83;;;10.00;99.90;;;;;;4983553;28;39376;-77
2022/09/27 03:04:21;;;;;;;8.17;1.40;;;9.90;99.90;;;;;;4992150;28;39018;-78
2022/09/27 03:06:50;;;;;;;6.17;1.40;;;10.00;99.90;;;;;;4970215;28;37753;-78
2022/09/27 03:09:23;;;;;;;10.33;1.50;;;9.90;99.90;;;;;;4987531;28;36941;-78
2022/09/27 03:11:52;;;;;;;9.03;1.70;;;9.90;99.90;;;;;;4981341;28;39685;-77
2022/09/27 03:14:18;;;;;;;7.07;1.37;;;9.90;99.90;;;;;;4966331;28;39258;-77
2022/09/27 03:16:44;;;;;;;10.93;1.33;;;9.90;99.90;;;;;;4989793;28;39146;-77
2022/09/27 03:19:10;;;;;;;12.47;1.27;;;9.90;99.90;;;;;;4963994;28;37172;-78
2022/09/27 03:21:36;;;;;;;8.13;1.03;;;9.90;99.90;;;;;;4967168;28;38509;-77
2022/09/27 03:24:03;;;;;;;6.57;0.87;;;9.80;99.90;;;;;;4973831;28;37382;-78
2022/09/27 03:26:29;;;;;;;8.43;1.10;;;9.90;99.90;;;;;;4973782;28;47472;-78
2022/09/27 03:28:55;;;;;;;9.93;1.40;;;9.80;99.90;;;;;;4973595;28;35962;-77
2022/09/27 03:31:21;;;;;;;5.07;1.30;;;9.80;99.90;;;;;;4970856;28;38024;-78
2022/09/27 03:33:47;;;;;;;12.07;1.30;;;9.80;99.90;;;;;;4980359;28;38319;-78
2022/09/27 03:36:16;;;;;;;7.20;0.97;;;9.70;99.90;;;;;;4993877;28;37986;-78
2022/09/27 03:38:42;;;;;;;5.00;1.10;;;9.70;99.90;;;;;;4964703;28;36203;-77
2022/09/27 03:41:08;;;;;;;4.93;1.43;;;9.70;99.90;;;;;;4993569;28;40314;-77
2022/09/27 03:43:34;;;;;;;9.37;1.93;;;9.70;99.90;;;;;;4994918;28;39197;-78
2022/09/27 03:46:01;;;;;;;9.77;1.67;;;9.70;99.90;;;;;;4989562;28;37772;-76
2022/09/27 03:48:27;;;;;;;11.63;1.50;;;9.70;99.90;;;;;;4965510;28;35934;-78
2022/09/27 03:50:53;;;;;;;11.73;1.03;;;9.70;99.90;;;;;;4987111;28;39107;-78
2022/09/27 03:53:19;;;;;;;11.90;1.70;;;9.50;99.90;;;;;;4966746;28;37467;-79
2022/09/27 03:55:46;;;;;;;7.40;0.90;;;9.60;99.90;;;;;;4971127;28;37341;-78
2022/09/27 03:58:13;;;;;;;10.27;0.90;;;9.60;99.90;;;;;;4975477;28;37265;-79
2022/09/27 04:00:40;;;;;;;3.30;0.87;;;9.60;99.90;;;;;;4993119;28;38986;-78
2022/09/27 04:03:06;;;;;;;8.93;1.33;;;9.60;99.90;;;;;;4992861;28;38259;-79
2022/09/27 04:05:32;;;;;;;4.57;0.97;;;9.60;99.90;;;;;;4996444;28;37965;-80
2022/09/27 04:07:58;;;;;;;5.73;0.87;;;9.60;99.90;;;;;;4976096;28;35883;-77
2022/09/27 04:10:24;;;;;;;6.90;0.70;;;9.60;99.90;;;;;;4987372;28;38489;-78
2022/09/27 04:12:51;;;;;;;11.33;1.37;;;9.70;99.90;;;;;;4971927;28;35145;-78
2022/09/27 04:15:17;;;;;;;8.47;1.20;;;9.60;99.90;;;;;;4968172;28;38063;-78
2022/09/27 04:17:43;;;;;;;6.13;0.97;;;9.60;99.90;;;;;;4967962;28;36786;-78
2022/09/27 04:20:10;;;;;;;5.53;1.37;;;9.60;99.90;;;;;;4970829;28;38802;-79
2022/09/27 04:22:40;;;;;;;5.47;0.80;;;9.70;99.90;;;;;;4984006;28;39349;-78
2022/09/27 04:25:08;;;;;;;4.53;0.97;;;9.70;99.90;;;;;;4978820;28;39254;-78
2022/09/27 04:27:35;;;;;;;9.33;2.63;;;9.70;99.90;;;;;;4966028;28;34462;-78
2022/09/27 04:30:01;;;;;;;8.50;3.00;;;9.70;99.90;;;;;;4977452;28;39952;-79
2022/09/27 04:32:27;;;;;;;7.57;2.63;;;9.80;99.90;;;;;;4963667;28;37352;-78
2022/09/27 04:37:38;;;;;;;9.53;2.70;;;9.80;99.90;;;;;;4982199;28;49359;-79
2022/09/27 04:40:04;;;;;;;8.63;1.93;;;9.80;99.90;;;;;;4976281;28;37415;-79
2022/09/27 04:42:30;;;;;;;7.27;2.40;;;9.80;99.90;;;;;;4984471;28;48465;-77
2022/09/27 04:44:59;;;;;;;7.63;1.77;;;9.80;99.90;;;;;;4969551;28;38773;-78
2022/09/27 04:47:25;;;;;;;9.00;2.17;;;9.80;99.90;;;;;;4993243;28;37072;-78
2022/09/27 04:49:51;;;;;;;10.10;2.63;;;9.80;99.90;;;;;;4973360;28;37705;-78
2022/09/27 04:52:17;;;;;;;7.60;2.83;;;9.80;99.90;;;;;;4960655;28;36977;-78
2022/09/27 04:54:43;;;;;;;9.40;1.80;;;9.80;99.90;;;;;;4987821;28;38606;-78
2022/09/27 04:57:11;;;;;;;9.87;2.10;;;9.70;99.90;;;;;;4983990;28;36740;-78
2022/09/27 04:59:37;;;;;;;5.63;1.60;;;9.70;99.90;;;;;;4980908;28;38834;-79
2022/09/27 05:02:04;;;;;;;7.87;1.33;;;9.70;99.90;;;;;;4965571;28;36967;-78
2022/09/27 05:04:30;;;;;;;7.67;1.30;;;9.60;99.90;;;;;;4965639;28;38140;-77
2022/09/27 05:06:57;;;;;;;3.17;0.90;;;9.60;99.90;;;;;;4961233;28;35870;-78
2022/09/27 05:09:23;;;;;;;5.67;1.00;;;9.60;99.90;;;;;;4965577;28;38446;-78
2022/09/27 05:11:49;;;;;;;3.63;0.90;;;9.60;99.90;;;;;;4961355;28;36415;-78
2022/09/27 05:14:15;;;;;;;2.90;1.10;;;9.60;99.90;;;;;;4962912;28;37332;-80
2022/09/27 05:16:41;;;;;;;4.13;1.13;;;9.60;99.90;;;;;;4968940;28;36624;-79
2022/09/27 05:19:07;;;;;;;6.07;1.30;;;9.70;99.90;;;;;;4990738;28;39036;-79
2022/09/27 05:21:33;;;;;;;5.90;1.30;;;9.60;99.90;;;;;;4986515;28;38555;-79
2022/09/27 05:24:00;;;;;;;3.40;1.20;;;9.60;99.90;;;;;;4966177;28;37976;-80
2022/09/27 05:26:26;;;;;;;5.47;1.50;;;9.60;99.90;;;;;;4974512;28;37397;-78
2022/09/27 05:28:52;;;;;;;4.47;1.27;;;9.60;99.90;;;;;;4991247;28;39350;-79
2022/09/27 05:31:18;;;;;;;9.37;2.40;;;9.70;99.90;;;;;;4960792;28;39860;-78
2022/09/27 05:33:44;;;;;;;3.20;1.17;;;9.70;99.90;;;;;;4986819;28;37947;-77
2022/09/27 05:36:10;;;;;;;5.77;2.60;;;9.60;99.90;;;;;;4980371;28;37284;-78
2022/09/27 05:38:37;;;;;;;11.13;5.33;;;9.80;99.90;;;;;;4985700;28;40430;-76
2022/09/27 05:41:04;;;;;;;8.30;4.27;;;9.80;99.90;;;;;;4987362;28;38478;-77
2022/09/27 05:43:31;;;;;;;9.73;5.20;;;9.70;99.90;;;;;;4964523;28;47250;-76
2022/09/27 05:45:57;;;;;;;12.83;3.57;;;9.70;99.90;;;;;;4981921;28;37475;-76
2022/09/27 05:48:33;;;;;;;10.07;2.83;;;9.70;99.90;;;;;;4971681;28;36531;-80
2022/09/27 05:50:59;;;;;;;6.63;2.43;;;9.70;99.90;;;;;;4977315;28;37370;-76
2022/09/27 05:53:25;;;;;;;9.33;1.87;;;9.60;99.90;;;;;;4984322;28;38522;-77
2022/09/27 05:55:51;;;;;;;9.53;1.70;;;9.60;99.90;;;;;;4963741;28;35584;-77
2022/09/27 05:58:17;;;;;;;7.90;1.63;;;9.60;99.90;;;;;;4971064;28;38959;-77
2022/09/27 06:00:43;;;;;;;7.57;1.60;;;9.60;99.90;;;;;;4966695;28;37239;-77
2022/09/27 06:03:12;;;;;;;3.50;0.97;;;9.60;99.90;;;;;;4978348;28;38909;-77
2022/09/27 06:05:39;;;;;;;3.03;1.20;;;9.60;99.90;;;;;;4962199;28;36195;-76
2022/09/27 06:08:09;;;;;;;3.77;1.03;;;9.70;99.90;;;;;;4991327;28;39670;-78
2022/09/27 06:10:36;;;;;;;8.40;1.10;;;9.70;99.90;;;;;;4981543;28;37377;-77
2022/09/27 06:13:07;;;;;;;13.53;2.30;;;9.80;99.90;;;;;;4987358;28;37866;-77
2022/09/27 06:15:36;;;;;;;6.60;1.20;;;9.80;99.90;;;;;;4967008;28;47000;-77
2022/09/27 06:18:04;;;;;;;7.07;1.33;;;9.80;99.90;;;;;;4968127;28;37992;-78
2022/09/27 06:20:31;;;;;;;6.17;1.10;;;9.80;99.90;;;;;;4970977;28;47174;-78
2022/09/27 06:23:23;;;;;;;8.03;1.20;;;9.80;99.90;;;;;;4991701;28;39110;-77
2022/09/27 06:25:51;;;;;;;8.50;1.07;;;9.80;99.90;;;;;;4967428;28;20051;-77
2022/09/27 06:28:18;;;;;;;9.43;1.20;;;9.80;99.90;;;;;;4991565;28;38845;-77
2022/09/27 06:30:46;;;;;;;6.27;1.00;;;9.80;99.90;;;;;;4970272;28;37909;-77
2022/09/27 06:33:15;;;;;;;5.50;1.10;;;9.80;99.90;;;;;;4971629;28;37189;-78
2022/09/27 06:35:44;;;;;;;7.77;1.10;;;9.90;99.90;;;;;;4972507;28;36071;-80
2022/09/27 06:38:12;;;;;;;7.93;1.40;;;9.90;99.90;;;;;;4956487;28;37978;-79
2022/09/27 06:40:45;;;;;;;4.30;0.87;;;9.90;99.90;;;;;;4984128;28;39121;-80
2022/09/27 06:43:17;;;;;;;4.57;0.90;;;9.90;99.90;;;;;;4974030;28;37203;-79
2022/09/27 06:45:43;;;;;;;6.93;1.13;;;10.00;99.90;;;;;;4973206;28;36100;-79
2022/09/27 06:48:11;;;;;;;7.00;1.23;;;10.00;99.90;;;;;;4976238;28;38478;-78
2022/09/27 06:50:40;;;;;;;4.97;1.13;;;10.10;99.90;;;;;;4971863;28;37390;-78
2022/09/27 06:53:09;;;;;;;7.77;1.40;;;10.00;99.90;;;;;;4973496;28;38090;-77
2022/09/27 06:55:37;;;;;;;6.43;1.10;;;10.00;99.90;;;;;;4967926;28;36461;-79
2022/09/27 07:00:52;;;;;;;6.63;1.33;;;10.00;99.90;;;;;;4984555;28;49425;-77
2022/09/27 07:03:21;;;;;;;7.67;1.17;;;10.10;99.90;;;;;;4983586;28;38189;-77
2022/09/27 07:05:58;;;;;;;9.93;1.50;;;10.00;99.90;;;;;;4971957;28;36085;-78
2022/09/27 07:08:27;;;;;;;5.30;1.07;;;10.10;99.90;;;;;;4985015;28;38490;-77
2022/09/27 07:10:55;;;;;;;8.63;1.10;;;10.10;99.90;;;;;;4973646;28;38262;-77
2022/09/27 07:13:21;;;;;;;9.80;2.57;;;10.10;99.90;;;;;;4970915;28;36764;-76
2022/09/27 07:15:47;;;;;;;9.20;1.50;;;10.10;99.90;;;;;;4972202;28;36203;-77
2022/09/27 07:18:14;;;;;;;8.10;0.93;;;10.10;99.90;;;;;;4971110;28;38410;-77
2022/09/27 07:20:40;;;;;;;5.20;1.00;;;10.30;99.90;;;;;;4979851;28;37553;-78
2022/09/27 07:23:07;;;;;;;6.33;1.03;;;10.20;99.90;;;;;;4975757;28;39806;-79
2022/09/27 07:25:34;;;;;;;4.97;1.00;;;10.30;99.90;;;;;;4986028;28;36152;-78
2022/09/27 07:28:06;;;;;;;7.43;1.83;;;10.50;99.90;;;;;;4979014;28;38893;-78
2022/09/27 07:30:35;;;;;;;5.47;0.90;;;10.50;99.90;;;;;;4977959;28;48903;-78
2022/09/27 07:33:04;;;;;;;7.33;1.23;;;10.50;99.90;;;;;;4988138;28;37255;-78
2022/09/27 07:35:30;;;;;;;7.87;1.20;;;10.60;99.90;;;;;;4995276;28;49088;-78
2022/09/27 07:37:57;;;;;;;4.60;0.90;;;10.50;99.90;;;;;;4969272;28;37614;-78
2022/09/27 07:40:25;;;;;;;9.93;1.50;;;10.40;99.90;;;;;;4988143;28;37903;-75
2022/09/27 07:42:57;;;;;;;4.90;1.50;;;10.30;99.90;;;;;;4982667;28;37851;-75
2022/09/27 07:45:25;;;;;;;8.15;2.42;;;10.30;99.90;;;;;;4986293;28;37271;-76
2022/09/27 07:47:51;;;;;;;9.40;2.03;;;10.30;99.90;;;;;;4949956;28;37568;-75
2022/09/27 07:50:17;;;;;;;8.27;1.40;;;10.30;99.90;;;;;;4972361;28;38963;-75
2022/09/27 07:52:46;;;;;;;4.00;1.00;;;10.40;99.90;;;;;;4991686;28;38297;-74
2022/09/27 07:55:13;;;;;;;4.00;0.90;;;10.40;99.90;;;;;;4986014;28;37375;-74
2022/09/27 07:57:40;;;;;;;2.63;0.83;;;10.40;99.90;;;;;;4971899;28;37817;-75
2022/09/27 08:00:09;;;;;;;9.03;1.90;;;10.40;99.90;;;;;;4993908;28;38199;-76
2022/09/27 08:02:36;;;;;;;6.80;1.50;;;10.40;99.90;;;;;;4987496;28;38182;-75
2022/09/27 08:05:03;;;;;;;6.67;1.13;;;10.20;99.90;;;;;;4978562;28;37243;-75
2022/09/27 08:07:30;;;;;;;7.13;1.10;;;10.10;99.90;;;;;;4988271;28;47712;-75
2022/09/27 08:09:56;;;;;;;9.53;1.77;;;10.10;99.90;;;;;;4974425;28;38069;-76
2022/09/27 08:12:23;;;;;;;9.67;4.30;;;10.00;99.90;;;;;;4966403;28;37502;-77
2022/09/27 08:14:49;;;;;;;5.33;2.07;;;10.00;99.90;;;;;;4976699;28;37468;-77
2022/09/27 08:17:18;;;;;;;8.97;1.63;;;10.10;99.90;;;;;;4991816;28;38923;-77
2022/09/27 08:19:47;;;;;;;5.60;0.80;;;10.10;99.90;;;;;;4967953;28;37458;-77
2022/09/27 08:22:13;;;;;;;8.20;1.10;;;10.00;99.90;;;;;;4982958;28;38952;-77
2022/09/27 08:24:42;;;;;;;4.07;0.90;;;9.90;99.90;;;;;;4987399;28;36883;-77
2022/09/27 08:27:08;;;;;;;5.83;1.00;;;9.90;99.90;;;;;;4964184;28;37141;-78
2022/09/27 08:29:34;;;;;;;7.17;1.63;;;9.90;99.90;;;;;;4976717;28;38531;-78
2022/09/27 08:32:01;;;;;;;7.63;1.73;;;9.80;99.90;;;;;;4982643;28;38226;-78
2022/09/27 08:34:28;;;;;;;7.47;1.40;;;9.80;99.90;;;;;;4978040;28;36695;-78
2022/09/27 08:36:54;;;;;;;7.30;1.10;;;9.80;99.90;;;;;;4971421;28;37647;-78
2022/09/27 08:39:23;;;;;;;3.47;0.93;;;9.90;99.90;;;;;;4968948;28;38302;-78
2022/09/27 08:42:16;;;;;;;2.63;1.20;;;9.90;99.90;;;;;;4989327;28;38613;-77
2022/09/27 08:44:56;;;;;;;6.68;2.10;;;9.90;99.90;;;;;;4960366;28;47244;-78
2022/09/27 08:47:42;;;;;;;5.47;1.57;;;10.00;99.90;;;;;;4965949;28;38190;-79
2022/09/27 08:50:35;;;;;;;5.20;1.70;;;10.00;99.90;;;;;;4983697;28;38133;-76
2022/09/27 08:53:13;;;;;;;6.13;1.55;;;10.10;99.90;;;;;;4966941;28;36812;-77
2022/09/27 08:55:41;;;;;;;5.10;1.30;;;10.20;99.90;;;;;;4966319;28;45612;-77
2022/09/27 08:58:40;;;;;;;8.63;2.20;;;10.30;99.90;;;;;;4982223;28;39685;-78
2022/09/27 09:01:12;;;;;;;6.57;1.23;;;10.30;99.90;;;;;;4937911;28;37149;-78
2022/09/27 09:03:51;;;;;;;9.85;1.98;;;10.30;99.90;;;;;;4955297;28;36995;-76
2022/09/27 09:06:46;;;;;;;2.77;1.03;;;10.20;99.90;;;;;;4981869;28;36810;-78
2022/09/27 09:09:39;;;;;;;6.67;1.20;;;10.10;99.90;;;;;;4974933;28;39937;-76
2022/09/27 09:15:55;;;;;;;5.60;1.03;;;10.00;99.90;;;;;;4979497;28;38335;-78
2022/09/27 09:18:21;;;;;;;5.67;1.37;;;10.00;99.90;;;;;;4965232;28;37500;-76
2022/09/27 09:21:18;;;;;;;6.50;1.10;;;9.90;99.90;;;;;;4983724;28;39335;-77
2022/09/27 09:23:58;;;;;;;4.10;1.00;;;9.90;99.90;;;;;;4964244;28;48111;-78
2022/09/27 09:26:33;;;;;;;7.63;1.10;;;9.80;99.90;;;;;;4969170;28;36912;-75
2022/09/27 09:29:14;;;;;;;6.03;1.50;;;9.80;99.90;;;;;;4969214;28;38470;-78
2022/09/27 09:31:51;;;;;;;6.47;1.40;;;9.80;99.90;;;;;;4957661;28;47332;-77
2022/09/27 09:34:25;;;;;;;5.30;1.50;;;9.80;99.90;;;;;;4956255;28;38195;-77
2022/09/27 09:36:58;;;;;;;8.13;1.90;;;9.80;99.90;;;;;;4968800;28;37949;-77
2022/09/27 09:39:32;;;;;;;5.40;1.55;;;9.90;99.90;;;;;;4969019;28;36223;-78
2022/09/27 09:42:18;;;;;;;6.03;1.00;;;9.80;99.90;;;;;;4963825;28;38060;-78
2022/09/27 09:44:48;;;;;;;3.27;0.70;;;9.50;99.90;;;;;;4983353;28;48973;-78
2022/09/27 09:47:36;;;;;;;2.93;0.63;;;9.50;99.90;;;;;;4981906;28;39216;-78
2022/09/27 09:50:28;;;;;;;2.60;0.80;;;9.60;99.90;;;;;;4981359;28;38237;-77
2022/09/27 09:53:38;;;;;;;3.67;0.80;;;9.70;99.90;;;;;;4954944;28;47054;-77
2022/09/27 09:56:20;;;;;;;3.70;0.90;;;9.70;99.90;;;;;;4963853;28;47308;-77
2022/09/27 09:58:50;;;;;;;;;;;9.70;99.90;;;;;;4971536;28;49086;-78
2022/09/27 10:01:22;;;;;;;2.17;1.03;;;9.70;99.90;;;;;;4975307;28;37495;-78
2022/09/27 10:03:48;;;;;;;4.35;1.00;;;9.70;99.90;;;;;;4981395;28;39869;-80
2022/09/27 10:06:16;;;;;;;5.33;1.23;;;9.70;99.90;;;;;;4999369;28;39202;-79
2022/09/27 10:08:43;;;;;;;6.50;1.67;;;9.60;99.90;;;;;;4983454;28;36802;-78
2022/09/27 10:11:20;;;;;;;4.70;1.00;;;9.60;99.90;;;;;;4967610;28;38106;-79
2022/09/27 10:13:46;;;;;;;7.47;1.00;;;9.60;99.90;;;;;;4979108;28;38442;-79
2022/09/27 10:16:16;;;;;;;3.60;0.80;;;9.60;99.90;;;;;;4967904;28;38819;-79
2022/09/27 10:18:45;;;;;;;2.97;0.90;;;9.40;99.90;;;;;;4989211;28;37893;-80
2022/09/27 10:21:21;;;;;;;5.80;1.20;;;9.40;99.90;;;;;;4969985;28;36299;-78
2022/09/27 10:24:13;;;;;;;5.07;1.50;;;9.40;99.90;;;;;;4971980;28;38685;-78
2022/09/27 10:26:43;;;;;;;9.77;2.78;;;9.50;99.90;;;;;;4965754;28;47069;-78
2022/09/27 10:29:22;;;;;;;8.60;3.80;;;9.60;99.90;;;;;;4958237;28;38327;-78
2022/09/27 10:31:49;;;;;;;5.03;1.97;;;9.70;99.90;;;;;;4983388;28;38536;-77
2022/09/27 10:34:34;;;;;;;5.33;2.07;;;9.70;99.90;;;;;;4966543;28;39198;-78
2022/09/27 10:37:22;;;;;;;4.87;1.40;;;9.90;99.90;;;;;;4970756;28;37472;-78
2022/09/27 10:39:50;;;;;;;3.00;1.10;;;10.10;99.90;;;;;;4987707;28;48800;-77
2022/09/27 10:42:26;;;;;;;6.10;1.30;;;10.20;99.90;;;;;;4964277;28;37322;-77
2022/09/27 10:44:53;;;;;;;7.75;1.33;;;10.20;99.90;;;;;;4969261;28;37427;-78
2022/09/27 10:47:22;;;;;;;2.30;0.90;;;10.30;99.90;;;;;;4986009;28;38284;-78
2022/09/27 10:49:52;;;;;;;8.87;1.73;;;10.30;99.90;;;;;;4989174;28;38820;-76
2022/09/27 10:52:21;;;;;;;5.33;1.20;;;10.20;99.90;;;;;;4999573;28;37468;-76
2022/09/27 10:54:58;;;;;;;10.32;4.68;;;10.20;99.90;;;;;;4993404;28;37671;-78
2022/09/27 10:57:29;;;;;;;4.00;1.15;;;10.20;99.90;;;;;;4987178;28;38570;-77
2022/09/27 11:00:06;;;;;;;6.13;1.65;;;10.30;99.90;;;;;;4982117;28;37116;-77
2022/09/27 11:02:35;;;;;;;2.33;0.90;;;10.40;99.90;;;;;;4992605;28;38245;-78
2022/09/27 11:05:30;;;;;;;5.03;1.92;;;10.70;99.90;;;;;;4964121;28;37922;-78
2022/09/27 11:08:01;;;;;;;5.10;1.25;;;10.90;99.90;;;;;;4978036;28;47888;-78
2022/09/27 11:10:35;;;;;;;6.38;0.88;;;11.10;99.90;;;;;;4965737;28;37317;-77
2022/09/27 11:13:13;;;;;;;3.10;0.70;;;11.30;99.90;;;;;;4965121;28;37348;-76
2022/09/27 11:16:16;;;;;;;3.53;0.60;;;11.60;99.90;;;;;;4989737;28;48377;-77
2022/09/27 11:19:40;;;;;;;3.33;0.95;;;11.20;99.90;;;;;;4985737;28;47150;-77
2022/09/27 11:22:28;;;;;;;4.70;0.90;;;11.30;99.90;;;;;;4949112;28;48997;-77
2022/09/27 11:25:40;;;;;;;4.05;1.25;;;11.70;99.90;;;;;;4990719;28;37065;-77
2022/09/27 11:28:16;;;;;;;2.85;0.98;;;11.80;99.90;;;;;;4946406;28;48468;-77
2022/09/27 11:31:02;;;;;;;3.90;1.02;;;12.00;99.90;;;;;;4981751;28;37846;-75
2022/09/27 11:33:43;;;;;;;6.63;1.30;;;12.30;99.90;;;;;;4983473;28;37873;-76
2022/09/27 11:36:31;;;;;;;6.47;1.00;;;12.20;99.90;;;;;;4970373;28;36151;-77
2022/09/27 11:39:24;;;;;;;9.80;1.13;;;12.10;99.90;;;;;;4969788;28;39184;-76
2022/09/27 11:42:01;;;;;;;4.30;1.50;;;12.20;99.90;;;;;;4981554;28;48354;-77
2022/09/27 11:44:43;;;;;;;6.72;1.00;;;12.10;99.90;;;;;;4972010;28;37710;-77
2022/09/27 11:47:17;;;;;;;3.80;1.05;;;12.10;99.90;;;;;;4978331;28;37948;-77
2022/09/27 11:50:06;;;;;;;7.60;1.48;;;12.00;99.90;;;;;;4983869;28;37993;-77
2022/09/27 11:52:54;;;;;;;5.85;0.93;;;12.10;99.90;;;;;;4970736;28;47108;-76
2022/09/27 11:55:42;;;;;;;5.15;0.88;;;12.20;99.90;;;;;;4967596;28;37771;-77
2022/09/27 11:58:58;;;;;;;5.13;0.80;;;12.20;99.90;;;;;;4973169;28;36412;-77
2022/09/27 12:01:33;;;;;;;6.45;1.10;;;12.30;99.90;;;;;;4909792;28;37445;-77
2022/09/27 12:04:11;;;;;;;4.07;0.77;;;12.40;99.90;;;;;;4985796;28;38269;-76
2022/09/27 12:06:51;;;;;;;6.88;1.08;;;12.50;99.90;;;;;;4981688;28;49138;-76
2022/09/27 12:09:23;;;;;;;4.28;0.90;;;12.70;99.90;;;;;;4970284;28;35996;-75
2022/09/27 12:12:03;;;;;;;4.93;1.02;;;12.80;99.90;;;;;;4985284;28;39541;-77
2022/09/27 12:14:44;;;;;;;4.97;1.00;;;13.00;99.90;;;;;;4965156;28;46724;-77
2022/09/27 12:17:26;;;;;;;4.68;0.88;;;13.30;99.90;;;;;;4977120;28;36699;-77
2022/09/27 12:19:55;;;;;;;3.97;0.98;;;13.50;99.90;;;;;;4976534;28;37979;-76
2022/09/27 12:22:29;;;;;;;6.03;0.73;;;13.70;99.90;;;;;;4979532;28;38044;-77
2022/09/27 12:24:55;;;;;;;5.25;0.70;;;13.60;99.90;;;;;;4969385;28;37355;-76
2022/09/27 12:27:35;;;;;;;3.38;0.63;;;13.40;99.90;;;;;;4975901;28;37399;-76
2022/09/27 12:30:05;;;;;;;7.80;1.00;;;13.10;99.90;;;;;;4965772;28;36156;-76
2022/09/27 12:32:31;;;;;;;6.40;1.40;;;13.00;99.90;;;;;;4988432;28;48455;-77
2022/09/27 12:35:26;;;;;;;3.95;0.70;;;13.00;99.90;;;;;;4979230;28;37633;-76
2022/09/27 12:38:20;;;;;;;5.22;1.73;;;13.30;99.90;;;;;;4970380;28;48636;-77
2022/09/27 12:40:54;;;;;;;4.30;1.00;;;13.20;99.90;;;;;;4995819;28;48578;-76
2022/09/27 12:43:30;;;;;;;7.43;0.77;;;13.40;99.90;;;;;;4989456;28;39237;-77
2022/09/27 12:46:14;;;;;;;4.53;0.70;;;13.50;99.90;;;;;;4987773;28;37602;-77
2022/09/27 12:49:09;;;;;;;3.15;0.68;;;13.60;99.90;;;;;;4981428;28;47569;-77
2022/09/27 12:51:40;;;;;;;11.05;1.70;;;13.40;99.90;;;;;;4979929;28;48281;-75
2022/09/27 12:54:12;;;;;;;10.38;1.80;;;12.90;99.90;;;;;;4976082;28;36561;-75
2022/09/27 12:57:07;;;;;;;6.40;1.20;;;12.10;99.90;;;;;;4970571;28;37600;-75
2022/09/27 12:59:39;;;;;;;3.25;1.10;;;11.60;99.90;;;;;;4987686;28;47345;-76
2022/09/27 13:02:29;;;;;;;8.38;1.00;;;11.60;99.90;;;;;;4978244;28;37217;-77
2022/09/27 13:05:16;;;;;;;3.83;0.88;;;11.80;99.90;;;;;;4990079;28;39652;-76
2022/09/27 13:08:04;;;;;;;6.00;1.50;;;12.10;99.90;;;;;;4985413;28;49023;-76
2022/09/27 13:10:44;;;;;;;6.78;1.00;;;12.30;99.90;;;;;;4968682;28;47750;-76
2022/09/27 13:13:13;;;;;;;11.52;1.48;;;12.50;99.90;;;;;;4969390;28;37225;-76
2022/09/27 13:15:42;;;;;;;9.13;1.45;;;12.50;99.90;;;;;;4965702;28;37604;-75
2022/09/27 13:18:34;;;;;;;9.50;1.30;;;12.40;99.90;;;;;;4959426;28;37894;-75
2022/09/27 13:21:03;;;;;;;7.93;1.08;;;12.40;99.90;;;;;;4987861;28;38149;-75
2022/09/27 13:23:30;;;;;;;11.02;1.63;;;12.50;99.90;;;;;;4970583;28;47539;-74
2022/09/27 13:25:59;;;;;;;6.90;1.50;;;12.50;99.90;;;;;;4987966;28;41001;-73
2022/09/27 13:28:30;;;;;;;7.20;1.10;;;12.50;99.90;;;;;;4980312;28;38440;-75
2022/09/27 13:31:15;;;;;;;14.02;1.50;;;12.40;99.90;;;;;;4986028;28;37365;-75
2022/09/27 13:33:44;;;;;;;11.65;1.60;;;12.40;99.90;;;;;;4962249;28;47358;-76